Time;durP1;ratioP1;P1;durP2;ratioP2;P2;SDS_P1;SDS_P2;PMS_P1;PMS_P2;Temp;Humidity;BMP_temperature;BMP_pressure;BME280_temperature;BME280_humidity;BME280_pressure;Samples;Min_cycle;Max_cycle;Signal;HPM_P1;HPM_P2
2023/09/09 00:00:16;;;;;;;6.28;5.68;;;24.00;99.90;;;;;;6232448;28;90063;-74
2023/09/09 00:03:18;;;;;;;6.18;5.57;;;24.10;99.90;;;;;;6228213;28;89391;-74
2023/09/09 00:06:22;;;;;;;6.43;5.80;;;24.10;99.90;;;;;;6229373;28;89097;-74
2023/09/09 00:09:24;;;;;;;7.35;6.10;;;24.10;99.90;;;;;;6229477;28;88999;-73
2023/09/09 00:12:26;;;;;;;7.60;6.57;;;24.00;99.90;;;;;;6228509;28;89170;-74
2023/09/09 00:15:29;;;;;;;6.55;5.85;;;24.10;99.90;;;;;;6229755;28;89059;-74
2023/09/09 00:18:31;;;;;;;6.28;5.68;;;24.10;99.90;;;;;;6222368;28;89412;-74
2023/09/09 00:21:35;;;;;;;6.93;6.03;;;24.10;99.90;;;;;;6229366;28;88591;-74
2023/09/09 00:24:37;;;;;;;6.75;6.03;;;24.00;99.90;;;;;;6230265;28;89170;-74
2023/09/09 00:27:39;;;;;;;7.30;6.50;;;24.10;99.90;;;;;;6234052;28;89255;-74
2023/09/09 00:30:41;;;;;;;6.47;5.88;;;24.10;99.90;;;;;;6235789;27;90531;-73
2023/09/09 00:33:44;;;;;;;6.38;5.78;;;24.10;99.90;;;;;;6231457;28;89113;-73
2023/09/09 00:36:47;;;;;;;7.22;6.10;;;24.00;99.90;;;;;;6230410;28;90597;-73
2023/09/09 00:39:49;;;;;;;7.18;6.47;;;24.00;99.90;;;;;;6229760;28;89041;-74
2023/09/09 00:42:51;;;;;;;6.50;5.90;;;24.10;99.90;;;;;;6234029;28;89052;-75
2023/09/09 00:45:53;;;;;;;7.03;6.35;;;24.00;99.90;;;;;;6231460;27;88966;-74
2023/09/09 00:48:55;;;;;;;7.40;6.22;;;24.00;99.90;;;;;;6230518;28;89104;-74
2023/09/09 00:51:59;;;;;;;6.55;5.82;;;24.00;99.90;;;;;;6234685;28;88794;-73
2023/09/09 00:55:01;;;;;;;6.90;6.20;;;24.00;99.90;;;;;;6241698;28;88800;-73
2023/09/09 00:58:03;;;;;;;7.28;6.47;;;24.00;99.90;;;;;;6228566;28;89040;-75
2023/09/09 01:01:05;;;;;;;6.80;6.20;;;24.00;99.90;;;;;;6234579;28;89285;-74
2023/09/09 01:04:08;;;;;;;6.72;6.03;;;24.00;99.90;;;;;;6229552;28;89116;-75
2023/09/09 01:07:12;;;;;;;6.32;5.72;;;24.00;99.90;;;;;;6233175;28;89124;-76
2023/09/09 01:10:15;;;;;;;7.68;6.18;;;24.00;99.90;;;;;;6233083;28;87932;-75
2023/09/09 01:13:17;;;;;;;7.15;6.50;;;24.00;99.90;;;;;;6231123;28;87945;-74
2023/09/09 01:16:19;;;;;;;7.35;6.63;;;24.00;99.90;;;;;;6231473;28;90857;-75
2023/09/09 01:19:25;;;;;;;6.60;6.00;;;24.00;99.90;;;;;;6230728;28;89314;-78
2023/09/09 01:22:33;;;;;;;7.82;6.47;;;24.00;99.90;;;;;;6233171;28;88309;-77
2023/09/09 01:25:35;;;;;;;7.13;6.35;;;24.00;99.90;;;;;;6231889;28;89141;-75
2023/09/09 01:28:37;;;;;;;6.90;6.20;;;24.00;99.90;;;;;;6232508;28;88926;-75
2023/09/09 01:31:39;;;;;;;6.70;6.10;;;24.00;99.90;;;;;;6232639;28;90037;-75
2023/09/09 01:34:42;;;;;;;6.50;5.90;;;24.00;99.90;;;;;;6230283;28;89030;-75
2023/09/09 01:37:45;;;;;;;7.05;6.32;;;24.00;99.90;;;;;;6231004;28;89249;-74
2023/09/09 01:40:48;;;;;;;6.50;5.90;;;24.00;99.90;;;;;;6232415;28;89020;-73
2023/09/09 01:43:50;;;;;;;7.13;6.43;;;24.00;99.90;;;;;;6233278;28;89188;-76
2023/09/09 01:46:52;;;;;;;6.80;6.20;;;24.00;99.90;;;;;;6230770;28;88071;-75
2023/09/09 01:49:54;;;;;;;7.03;6.32;;;24.00;99.90;;;;;;6231510;28;89029;-76
2023/09/09 01:52:57;;;;;;;6.85;6.25;;;24.00;99.90;;;;;;6232041;28;88733;-75
2023/09/09 01:55:59;;;;;;;6.60;6.00;;;24.00;99.90;;;;;;6230546;28;89151;-75
2023/09/09 01:59:01;;;;;;;6.93;6.22;;;24.00;99.90;;;;;;6226769;28;89369;-75
2023/09/09 02:02:03;;;;;;;7.07;6.43;;;24.00;99.90;;;;;;6227040;28;90199;-75
2023/09/09 02:05:06;;;;;;;7.05;6.35;;;24.00;99.90;;;;;;6227337;28;89033;-76
2023/09/09 02:08:09;;;;;;;7.13;6.43;;;24.00;99.90;;;;;;6228790;28;89051;-75
2023/09/09 02:11:11;;;;;;;6.78;6.07;;;24.00;99.90;;;;;;6230098;28;89038;-74
2023/09/09 02:14:13;;;;;;;6.97;6.28;;;24.00;99.90;;;;;;6227317;28;88591;-74
2023/09/09 02:17:15;;;;;;;7.07;6.38;;;24.00;99.90;;;;;;6224762;28;89024;-74
2023/09/09 02:20:17;;;;;;;7.32;6.55;;;24.00;99.90;;;;;;6230345;28;87916;-74
2023/09/09 02:23:20;;;;;;;7.75;6.18;;;24.00;99.90;;;;;;6232768;28;88663;-74
2023/09/09 02:26:22;;;;;;;7.38;6.65;;;23.90;99.90;;;;;;6231127;28;88275;-76
2023/09/09 02:29:24;;;;;;;6.85;6.25;;;23.90;99.90;;;;;;6223532;28;89474;-75
2023/09/09 02:32:26;;;;;;;6.70;6.00;;;23.90;99.90;;;;;;6228882;28;89992;-76
2023/09/09 02:35:29;;;;;;;7.30;6.32;;;23.90;99.90;;;;;;6224128;28;88953;-76
2023/09/09 02:38:33;;;;;;;7.40;6.70;;;23.90;99.90;;;;;;6229122;28;89352;-73
2023/09/09 02:41:36;;;;;;;8.35;7.03;;;23.90;99.90;;;;;;6233894;28;89049;-74
2023/09/09 02:44:38;;;;;;;7.38;6.68;;;23.90;99.90;;;;;;6235463;27;87936;-74
2023/09/09 02:47:40;;;;;;;7.20;6.50;;;23.90;99.90;;;;;;6223494;28;89326;-74
2023/09/09 02:50:42;;;;;;;7.10;6.40;;;23.90;99.90;;;;;;6230545;28;89082;-73
2023/09/09 02:53:45;;;;;;;7.22;6.53;;;23.90;99.90;;;;;;6233253;28;88510;-73
2023/09/09 02:56:47;;;;;;;7.40;6.70;;;23.90;99.90;;;;;;6237801;27;89064;-74
2023/09/09 02:59:49;;;;;;;7.32;6.55;;;23.90;99.90;;;;;;6230419;28;89155;-76
2023/09/09 03:02:51;;;;;;;7.50;6.65;;;23.90;99.90;;;;;;6232280;28;88912;-75
2023/09/09 03:05:53;;;;;;;6.70;6.10;;;23.90;99.90;;;;;;6231367;27;89066;-76
2023/09/09 03:08:56;;;;;;;7.00;6.30;;;23.90;99.90;;;;;;6225059;27;89347;-74
2023/09/09 03:12:01;;;;;;;7.55;6.82;;;23.90;99.90;;;;;;6232437;28;88990;-76
2023/09/09 03:15:05;;;;;;;7.60;6.50;;;23.90;99.90;;;;;;6227723;28;88144;-75
2023/09/09 03:18:07;;;;;;;6.97;6.28;;;23.90;99.90;;;;;;6222230;28;89024;-75
2023/09/09 03:21:09;;;;;;;7.13;6.43;;;23.90;99.90;;;;;;6232152;28;89049;-75
2023/09/09 03:24:12;;;;;;;6.57;5.97;;;23.90;99.90;;;;;;6228157;28;88260;-74
2023/09/09 03:27:14;;;;;;;7.13;6.30;;;23.80;99.90;;;;;;6242178;28;89001;-74
2023/09/09 03:30:16;;;;;;;7.15;6.45;;;23.90;99.90;;;;;;6228994;28;88249;-74
2023/09/09 03:33:18;;;;;;;7.10;6.35;;;23.90;99.90;;;;;;6228459;28;90110;-75
2023/09/09 03:36:20;;;;;;;7.05;6.35;;;23.90;99.90;;;;;;6229235;28;87812;-74
2023/09/09 03:39:24;;;;;;;7.53;6.80;;;23.90;99.90;;;;;;6231648;28;89062;-74
2023/09/09 03:42:26;;;;;;;7.18;6.22;;;23.90;99.90;;;;;;6237738;28;89053;-73
2023/09/09 03:45:28;;;;;;;6.85;6.18;;;23.90;99.90;;;;;;6227815;27;88994;-74
2023/09/09 03:48:30;;;;;;;6.80;6.20;;;23.90;99.90;;;;;;6227441;28;89394;-74
2023/09/09 03:51:32;;;;;;;6.60;6.00;;;23.90;99.90;;;;;;6226600;28;90303;-74
2023/09/09 03:54:36;;;;;;;6.75;6.15;;;23.90;99.90;;;;;;6233229;28;88499;-75
2023/09/09 03:57:38;;;;;;;6.80;6.00;;;23.90;99.90;;;;;;6235448;28;89046;-74
2023/09/09 04:00:39;;;;;;;6.93;6.22;;;23.90;99.90;;;;;;6236291;28;88993;-75
2023/09/09 04:03:42;;;;;;;6.95;6.25;;;23.90;99.90;;;;;;6237414;27;89913;-74
2023/09/09 04:06:44;;;;;;;6.53;5.93;;;23.90;99.90;;;;;;6234256;28;88557;-75
2023/09/09 04:09:47;;;;;;;6.43;5.80;;;23.90;99.90;;;;;;6233070;28;89482;-74
2023/09/09 04:12:49;;;;;;;6.57;5.95;;;23.90;99.90;;;;;;6229673;28;89512;-76
2023/09/09 04:15:53;;;;;;;7.03;6.32;;;23.90;99.90;;;;;;6232337;28;89070;-75
2023/09/09 04:18:55;;;;;;;6.78;6.13;;;23.90;99.90;;;;;;6236230;28;87965;-75
2023/09/09 04:21:57;;;;;;;7.13;6.30;;;23.90;99.90;;;;;;6231158;28;89126;-75
2023/09/09 04:25:00;;;;;;;6.80;6.20;;;23.90;99.90;;;;;;6237292;28;88446;-73
2023/09/09 04:28:02;;;;;;;6.90;6.20;;;23.90;99.90;;;;;;6237517;28;89148;-73
2023/09/09 04:31:04;;;;;;;6.47;5.85;;;23.90;99.90;;;;;;6231761;28;89051;-75
2023/09/09 04:34:06;;;;;;;6.50;5.90;;;23.90;99.90;;;;;;6231850;28;90020;-75
2023/09/09 04:37:08;;;;;;;6.70;6.00;;;23.90;99.90;;;;;;6234572;28;87919;-74
2023/09/09 04:40:13;;;;;;;6.22;5.63;;;23.80;99.90;;;;;;6231049;28;89261;-74
2023/09/09 04:43:16;;;;;;;6.63;6.03;;;23.80;99.90;;;;;;6228597;28;90181;-75
2023/09/09 04:46:18;;;;;;;6.35;5.75;;;23.80;99.90;;;;;;6232875;28;90165;-75
2023/09/09 04:49:20;;;;;;;6.70;6.07;;;23.80;99.90;;;;;;6234382;28;89510;-76
2023/09/09 04:52:22;;;;;;;6.22;5.63;;;23.80;99.90;;;;;;6233451;28;89133;-74
2023/09/09 04:55:25;;;;;;;6.25;5.65;;;23.80;99.90;;;;;;6233136;28;88469;-73
2023/09/09 04:58:27;;;;;;;7.50;5.65;;;23.80;99.90;;;;;;6237274;28;88951;-73
2023/09/09 05:01:29;;;;;;;6.70;5.70;;;23.80;99.90;;;;;;6226808;28;89035;-73
2023/09/09 05:04:31;;;;;;;6.65;6.00;;;23.80;99.90;;;;;;6233483;28;89969;-74
2023/09/09 05:07:34;;;;;;;6.03;5.47;;;23.80;99.90;;;;;;6232428;28;89283;-73
2023/09/09 05:10:38;;;;;;;6.78;5.50;;;23.90;99.90;;;;;;6231699;28;89096;-73
2023/09/09 05:13:40;;;;;;;6.35;5.75;;;23.90;99.90;;;;;;6232996;28;89305;-73
2023/09/09 05:16:42;;;;;;;6.43;5.82;;;23.80;99.90;;;;;;6232756;28;89490;-71
2023/09/09 05:19:44;;;;;;;7.95;5.80;;;23.90;99.90;;;;;;6233926;28;89068;-73
2023/09/09 05:22:46;;;;;;;6.68;5.95;;;23.90;99.90;;;;;;6243197;28;89146;-73
2023/09/09 05:25:49;;;;;;;6.75;6.15;;;23.90;99.90;;;;;;6241413;27;88257;-72
2023/09/09 05:28:51;;;;;;;6.28;5.68;;;23.90;99.90;;;;;;6233062;28;89398;-72
2023/09/09 05:31:53;;;;;;;6.43;5.82;;;23.90;99.90;;;;;;6235252;28;89107;-72
2023/09/09 05:34:55;;;;;;;7.35;5.75;;;23.90;99.90;;;;;;6230676;28;89934;-73
2023/09/09 05:37:57;;;;;;;7.35;5.40;;;23.90;99.90;;;;;;6225540;28;87928;-72
2023/09/09 05:41:00;;;;;;;7.05;6.18;;;23.90;99.70;;;;;;6230977;28;89078;-72
2023/09/09 05:44:02;;;;;;;7.82;6.03;;;23.90;99.60;;;;;;6237019;28;89051;-72
2023/09/09 05:47:05;;;;;;;7.53;5.95;;;23.90;99.90;;;;;;6247407;27;89032;-72
2023/09/09 05:50:07;;;;;;;7.10;5.70;;;23.90;99.90;;;;;;6236520;28;89050;-73
2023/09/09 05:53:11;;;;;;;7.78;5.90;;;23.90;99.90;;;;;;6235697;28;88024;-72
2023/09/09 05:56:14;;;;;;;6.68;5.70;;;23.90;99.40;;;;;;6236348;28;88402;-72
2023/09/09 05:59:16;;;;;;;6.40;5.80;;;23.90;99.10;;;;;;6232387;28;89000;-73
2023/09/09 06:02:18;;;;;;;6.38;5.78;;;23.90;99.00;;;;;;6230294;28;88434;-72
2023/09/09 06:05:20;;;;;;;6.50;5.90;;;23.90;98.70;;;;;;6231486;28;90067;-73
2023/09/09 06:08:22;;;;;;;6.63;5.95;;;23.90;98.70;;;;;;6228882;28;87961;-73
2023/09/09 06:11:25;;;;;;;6.78;6.18;;;23.90;98.70;;;;;;6231946;28;89394;-73
2023/09/09 06:14:27;;;;;;;6.57;5.72;;;23.90;98.80;;;;;;6233460;28;89079;-72
2023/09/09 06:17:29;;;;;;;6.00;5.40;;;23.90;99.00;;;;;;6232369;28;89696;-72
2023/09/09 06:20:31;;;;;;;6.70;5.95;;;23.90;99.00;;;;;;6230785;28;89177;-72
2023/09/09 06:23:35;;;;;;;6.50;5.90;;;23.90;99.10;;;;;;6230916;28;89107;-72
2023/09/09 06:26:38;;;;;;;7.15;6.43;;;23.90;99.30;;;;;;6231581;28;88151;-73
2023/09/09 06:29:40;;;;;;;7.60;6.35;;;23.90;99.80;;;;;;6232180;28;89003;-71
2023/09/09 06:32:42;;;;;;;6.85;6.25;;;23.90;99.90;;;;;;6235237;28;89698;-70
2023/09/09 06:35:51;;;;;;;6.82;6.22;;;23.90;99.90;;;;;;6231215;27;89128;-71
2023/09/09 06:38:53;;;;;;;8.23;6.30;;;23.90;99.90;;;;;;6230263;28;89451;-71
2023/09/09 06:41:57;;;;;;;7.03;6.30;;;23.90;99.90;;;;;;6231551;28;89102;-72
2023/09/09 06:45:00;;;;;;;6.82;6.18;;;23.90;99.90;;;;;;6230328;28;89024;-72
2023/09/09 06:48:03;;;;;;;6.90;6.20;;;23.90;99.90;;;;;;6231748;28;87968;-71
2023/09/09 06:51:05;;;;;;;7.00;6.30;;;23.90;99.90;;;;;;6230821;28;88073;-72
2023/09/09 06:54:07;;;;;;;7.43;6.72;;;23.90;99.90;;;;;;6232602;28;88940;-72
2023/09/09 06:57:11;;;;;;;7.03;6.40;;;23.90;99.90;;;;;;6231175;28;88349;-72
2023/09/09 07:00:14;;;;;;;6.97;6.38;;;23.90;99.90;;;;;;6229565;28;88990;-72
2023/09/09 07:03:16;;;;;;;7.55;6.75;;;23.90;99.90;;;;;;6230157;28;89045;-73
2023/09/09 07:06:18;;;;;;;7.43;6.60;;;23.90;99.90;;;;;;6235888;28;89970;-72
2023/09/09 07:09:21;;;;;;;7.78;7.00;;;23.90;99.90;;;;;;6220680;28;88002;-73
2023/09/09 07:12:24;;;;;;;7.45;6.68;;;23.90;99.90;;;;;;6225109;28;89008;-71
2023/09/09 07:15:26;;;;;;;7.03;6.35;;;23.90;99.90;;;;;;6230966;28;89213;-71
2023/09/09 07:18:28;;;;;;;9.48;6.88;;;23.90;99.90;;;;;;6230946;28;89318;-71
2023/09/09 07:21:31;;;;;;;9.30;6.38;;;23.80;99.90;;;;;;6228593;28;89011;-71
2023/09/09 07:24:32;;;;;;;9.13;6.95;;;23.90;99.90;;;;;;6230112;28;89147;-69
2023/09/09 07:27:36;;;;;;;9.65;7.00;;;23.90;99.90;;;;;;6234674;28;87316;-70
2023/09/09 07:30:38;;;;;;;8.82;7.45;;;23.90;99.90;;;;;;6228485;28;89085;-69
2023/09/09 07:33:41;;;;;;;7.82;7.03;;;23.80;99.90;;;;;;6229797;28;89714;-70
2023/09/09 07:36:43;;;;;;;7.97;6.90;;;23.80;99.90;;;;;;6230040;28;89874;-70
2023/09/09 07:39:46;;;;;;;9.35;7.70;;;23.80;99.90;;;;;;6229025;28;89074;-70
2023/09/09 07:42:49;;;;;;;8.13;7.30;;;23.80;99.90;;;;;;6230057;28;89094;-69
2023/09/09 07:45:52;;;;;;;7.30;6.60;;;23.80;99.90;;;;;;6228954;28;89403;-70
2023/09/09 07:48:54;;;;;;;7.80;7.03;;;23.80;99.90;;;;;;6226784;28;88269;-69
2023/09/09 07:51:56;;;;;;;8.85;7.47;;;23.80;99.90;;;;;;6239279;28;89651;-71
2023/09/09 07:54:57;;;;;;;7.55;6.85;;;23.80;99.90;;;;;;6227127;28;89720;-70
2023/09/09 07:58:01;;;;;;;7.25;6.60;;;23.80;99.90;;;;;;6229494;28;88975;-71
2023/09/09 08:01:04;;;;;;;7.45;6.75;;;23.80;99.90;;;;;;6229284;28;89083;-71
2023/09/09 08:04:07;;;;;;;7.78;6.60;;;23.80;99.90;;;;;;6230374;28;89010;-70
2023/09/09 08:07:09;;;;;;;7.57;6.88;;;23.90;99.90;;;;;;6229594;28;90219;-71
2023/09/09 08:10:12;;;;;;;7.38;6.75;;;23.80;99.90;;;;;;6229728;28;89039;-70
2023/09/09 08:13:15;;;;;;;7.50;6.80;;;23.80;99.90;;;;;;6229044;28;89075;-71
2023/09/09 08:16:17;;;;;;;7.57;6.88;;;23.80;99.90;;;;;;6229316;28;89086;-71
2023/09/09 08:19:20;;;;;;;7.20;6.50;;;23.80;99.90;;;;;;6229806;28;89614;-72
2023/09/09 08:22:22;;;;;;;6.75;6.22;;;23.90;99.90;;;;;;6230401;28;89227;-71
2023/09/09 08:25:25;;;;;;;7.07;6.47;;;23.80;99.90;;;;;;6231030;28;89144;-71
2023/09/09 08:28:29;;;;;;;6.82;6.25;;;23.80;99.90;;;;;;6229830;28;88331;-71
2023/09/09 08:31:31;;;;;;;7.78;6.82;;;23.90;99.90;;;;;;6229298;28;89193;-71
2023/09/09 08:34:32;;;;;;;8.32;7.35;;;23.80;99.90;;;;;;6228144;28;89146;-71
2023/09/09 08:37:34;;;;;;;7.20;6.50;;;23.90;99.90;;;;;;6230040;28;88938;-71
2023/09/09 08:40:50;;;;;;;7.28;6.68;;;23.80;99.90;;;;;;6229513;28;89501;-71
2023/09/09 08:44:02;;;;;;;7.03;6.32;;;23.80;99.90;;;;;;6229493;28;89133;-71
2023/09/09 08:47:04;;;;;;;7.72;6.90;;;23.80;99.90;;;;;;6233643;28;89082;-71
2023/09/09 08:50:08;;;;;;;7.40;6.70;;;23.80;99.90;;;;;;6230761;28;89401;-71
2023/09/09 08:53:13;;;;;;;7.40;6.70;;;23.90;99.90;;;;;;6221575;28;89042;-71
2023/09/09 08:56:17;;;;;;;6.85;6.25;;;23.80;99.90;;;;;;6231974;28;89095;-71
2023/09/09 08:59:23;;;;;;;7.35;6.60;;;23.90;99.90;;;;;;6226065;28;89457;-71
2023/09/09 09:02:25;;;;;;;7.20;6.50;;;23.90;99.90;;;;;;6230118;28;89421;-71
2023/09/09 09:05:27;;;;;;;7.22;6.53;;;23.90;99.90;;;;;;6233028;28;89066;-70
2023/09/09 09:08:29;;;;;;;6.78;6.18;;;23.90;99.90;;;;;;6233266;28;89935;-71
2023/09/09 09:11:32;;;;;;;7.35;6.63;;;23.90;99.90;;;;;;6232080;28;89106;-71
2023/09/09 09:14:35;;;;;;;7.00;6.32;;;23.90;99.90;;;;;;6233515;28;89072;-71
2023/09/09 09:17:40;;;;;;;7.43;6.65;;;23.90;99.90;;;;;;6222967;28;89091;-70
2023/09/09 09:20:42;;;;;;;6.93;6.30;;;23.90;99.90;;;;;;6232622;28;89081;-71
2023/09/09 09:23:45;;;;;;;7.03;6.43;;;23.90;99.90;;;;;;6232663;28;89144;-71
2023/09/09 09:26:47;;;;;;;6.80;6.18;;;23.90;99.90;;;;;;6234059;28;89015;-71
2023/09/09 09:29:50;;;;;;;7.32;6.63;;;23.90;99.90;;;;;;6234091;28;88176;-71
2023/09/09 09:32:56;;;;;;;6.78;6.18;;;23.90;99.90;;;;;;6232681;28;89214;-71
2023/09/09 09:36:00;;;;;;;6.90;6.20;;;23.90;99.90;;;;;;6233794;28;89036;-71
2023/09/09 09:39:09;;;;;;;7.10;6.40;;;23.90;99.90;;;;;;6222009;28;90121;-71
2023/09/09 09:42:12;;;;;;;7.10;6.40;;;23.90;99.90;;;;;;6225284;28;89016;-71
2023/09/09 09:45:16;;;;;;;7.05;6.38;;;23.90;99.90;;;;;;6232186;28;88967;-71
2023/09/09 09:48:30;;;;;;;6.75;6.15;;;23.90;99.90;;;;;;6233008;28;87905;-71
2023/09/09 09:51:43;;;;;;;6.90;6.30;;;23.90;99.90;;;;;;6230249;28;89209;-71
2023/09/09 09:54:51;;;;;;;6.65;6.05;;;23.90;99.90;;;;;;6231574;28;90006;-71
2023/09/09 09:57:56;;;;;;;6.75;6.05;;;23.90;99.90;;;;;;6232065;28;89106;-71
2023/09/09 10:01:02;;;;;;;6.72;6.13;;;23.90;99.90;;;;;;6232731;28;88696;-70
2023/09/09 10:04:07;;;;;;;6.63;6.03;;;23.90;99.90;;;;;;6232695;28;88924;-71
2023/09/09 10:07:12;;;;;;;7.03;6.43;;;23.90;99.90;;;;;;6232070;28;87866;-71
2023/09/09 10:10:19;;;;;;;7.38;6.68;;;23.90;99.90;;;;;;6231134;28;89903;-71
2023/09/09 10:13:28;;;;;;;7.25;6.32;;;23.90;99.90;;;;;;6231366;28;89027;-71
2023/09/09 10:16:33;;;;;;;6.53;5.93;;;23.90;99.90;;;;;;6230764;28;89280;-71
2023/09/09 10:19:36;;;;;;;6.78;6.18;;;23.90;99.90;;;;;;6232500;28;88992;-71
2023/09/09 10:22:40;;;;;;;6.70;6.10;;;23.90;99.90;;;;;;6232356;28;87947;-71
2023/09/09 10:25:43;;;;;;;6.55;5.95;;;23.90;99.90;;;;;;6231080;28;88994;-71
2023/09/09 10:28:47;;;;;;;6.70;6.10;;;23.90;99.90;;;;;;6231275;28;89230;-71
2023/09/09 10:31:53;;;;;;;7.03;6.32;;;23.90;99.90;;;;;;6232039;28;88377;-71
2023/09/09 10:34:55;;;;;;;6.50;5.90;;;23.90;99.90;;;;;;6231408;28;88932;-71
2023/09/09 10:37:58;;;;;;;7.05;6.35;;;23.90;99.90;;;;;;6230355;28;89020;-70
2023/09/09 10:41:01;;;;;;;7.07;6.47;;;23.90;99.90;;;;;;6230067;28;89930;-71
2023/09/09 10:44:03;;;;;;;6.60;6.00;;;23.90;99.90;;;;;;6225408;28;89101;-71
2023/09/09 10:47:09;;;;;;;6.80;6.20;;;23.90;99.90;;;;;;6231648;28;89075;-71
2023/09/09 10:50:11;;;;;;;6.85;6.05;;;24.00;99.90;;;;;;6229838;28;89088;-72
2023/09/09 10:53:18;;;;;;;6.68;6.07;;;24.00;99.90;;;;;;6231606;28;88007;-71
2023/09/09 10:56:24;;;;;;;6.70;6.10;;;23.90;99.90;;;;;;6227750;28;89157;-71
2023/09/09 10:59:28;;;;;;;6.63;6.03;;;24.00;99.90;;;;;;6229502;28;89102;-74
2023/09/09 11:02:31;;;;;;;6.70;6.10;;;23.90;99.90;;;;;;6230605;28;88321;-72
2023/09/09 11:05:57;;;;;;;6.60;5.95;;;23.90;99.90;;;;;;6231336;27;89171;-73
2023/09/09 11:09:01;;;;;;;7.05;6.45;;;24.00;99.90;;;;;;6227856;28;88018;-72
2023/09/09 11:12:13;;;;;;;6.93;6.28;;;24.00;99.90;;;;;;6229540;28;89114;-72
2023/09/09 11:15:16;;;;;;;6.72;6.13;;;24.10;99.90;;;;;;6232675;28;88932;-72
2023/09/09 11:18:20;;;;;;;6.75;6.05;;;24.00;99.90;;;;;;6223242;28;88241;-71
2023/09/09 11:21:23;;;;;;;6.95;6.32;;;24.10;99.90;;;;;;6230496;28;89214;-72
2023/09/09 11:24:25;;;;;;;6.82;6.22;;;24.00;99.90;;;;;;6233125;28;89544;-71
2023/09/09 11:27:27;;;;;;;6.40;5.88;;;24.00;99.90;;;;;;6229071;28;89189;-71
2023/09/09 11:30:29;;;;;;;6.57;5.97;;;24.00;99.90;;;;;;6230142;28;89087;-72
2023/09/09 11:33:32;;;;;;;6.97;6.38;;;24.00;99.90;;;;;;6226453;28;88782;-74
2023/09/09 11:36:34;;;;;;;7.70;6.90;;;24.00;99.90;;;;;;6232189;28;89089;-74
2023/09/09 11:39:45;;;;;;;7.53;6.72;;;24.00;99.90;;;;;;6230931;28;89437;-74
2023/09/09 11:42:53;;;;;;;8.27;7.47;;;24.00;99.90;;;;;;6228986;28;90009;-72
2023/09/09 11:45:56;;;;;;;8.48;7.55;;;24.10;99.90;;;;;;6230099;28;89273;-75
2023/09/09 11:48:59;;;;;;;8.30;7.60;;;24.00;99.90;;;;;;6230264;28;88989;-74
2023/09/09 11:52:02;;;;;;;8.25;7.55;;;24.10;99.90;;;;;;6226261;28;87945;-74
2023/09/09 11:55:04;;;;;;;8.40;7.70;;;24.10;99.90;;;;;;6227373;28;89048;-73
2023/09/09 11:58:06;;;;;;;8.60;7.78;;;24.00;99.90;;;;;;6229197;28;89105;-75
2023/09/09 12:01:10;;;;;;;8.55;7.75;;;24.10;99.90;;;;;;6226010;28;88997;-75
2023/09/09 12:04:15;;;;;;;9.40;7.57;;;24.10;99.90;;;;;;6230378;28;89825;-75
2023/09/09 12:07:17;;;;;;;9.48;7.85;;;24.10;99.90;;;;;;6229446;28;88098;-74
2023/09/09 12:10:19;;;;;;;8.63;7.75;;;24.10;99.90;;;;;;6230049;28;89013;-78
2023/09/09 12:13:21;;;;;;;9.55;7.82;;;24.00;99.90;;;;;;6228951;28;90032;-75
2023/09/09 12:16:23;;;;;;;8.02;7.22;;;24.00;99.90;;;;;;6228636;28;89404;-74
2023/09/09 12:19:27;;;;;;;8.00;7.25;;;24.10;99.90;;;;;;6232101;28;89018;-73
2023/09/09 12:22:33;;;;;;;8.68;7.78;;;24.10;99.90;;;;;;6235570;27;89054;-74
2023/09/09 12:25:36;;;;;;;8.75;7.43;;;24.10;99.90;;;;;;6231736;28;89916;-71
2023/09/09 12:28:39;;;;;;;8.68;7.38;;;24.10;99.90;;;;;;6232364;28;89159;-71
2023/09/09 12:31:52;;;;;;;8.63;7.10;;;24.10;99.90;;;;;;6229296;28;88055;-70
2023/09/09 12:34:56;;;;;;;8.70;7.47;;;24.10;99.90;;;;;;6232919;28;88274;-73
2023/09/09 12:37:58;;;;;;;9.48;7.10;;;24.10;99.90;;;;;;6235049;28;89286;-71
2023/09/09 12:41:05;;;;;;;7.97;7.28;;;24.10;99.90;;;;;;6231223;28;89024;-71
2023/09/09 12:44:09;;;;;;;12.23;11.07;;;24.20;99.90;;;;;;6231843;28;90287;-70
2023/09/09 12:47:11;;;;;;;10.63;9.15;;;24.10;99.90;;;;;;6233597;28;88994;-71
2023/09/09 12:50:15;;;;;;;11.00;9.13;;;24.20;99.90;;;;;;6231565;28;89350;-71
2023/09/09 12:53:17;;;;;;;10.27;8.75;;;24.30;99.90;;;;;;6235065;28;89035;-72
2023/09/09 12:56:20;;;;;;;9.52;8.63;;;24.30;99.90;;;;;;6230709;27;88831;-71
2023/09/09 12:59:22;;;;;;;8.95;8.15;;;24.40;99.90;;;;;;6228513;28;89471;-71
2023/09/09 13:02:24;;;;;;;8.82;8.00;;;24.40;99.90;;;;;;6234633;28;89534;-72
2023/09/09 13:05:27;;;;;;;8.55;7.75;;;24.50;99.90;;;;;;6237618;27;88438;-71
2023/09/09 13:08:29;;;;;;;8.73;7.82;;;24.50;99.90;;;;;;6234993;28;89069;-70
2023/09/09 13:11:31;;;;;;;9.68;8.00;;;24.50;99.90;;;;;;6232166;28;89496;-70
2023/09/09 13:14:33;;;;;;;10.00;8.05;;;24.50;99.90;;;;;;6231107;28;90044;-70
2023/09/09 13:17:35;;;;;;;8.82;7.80;;;24.50;99.90;;;;;;6232513;28;89053;-71
2023/09/09 13:20:39;;;;;;;8.00;7.20;;;24.50;99.90;;;;;;6228914;28;89082;-71
2023/09/09 13:23:41;;;;;;;7.72;7.03;;;24.50;99.90;;;;;;6232257;28;89315;-70
2023/09/09 13:26:43;;;;;;;9.48;7.60;;;24.50;99.90;;;;;;6230866;28;87983;-70
2023/09/09 13:29:45;;;;;;;7.88;7.10;;;24.50;99.90;;;;;;6218995;28;88991;-69
2023/09/09 13:32:47;;;;;;;7.30;6.70;;;24.50;99.90;;;;;;6225877;28;89131;-70
2023/09/09 13:35:50;;;;;;;9.07;7.28;;;24.60;99.90;;;;;;6228169;28;87266;-70
2023/09/09 13:38:53;;;;;;;7.70;7.00;;;24.60;99.90;;;;;;6232233;28;89189;-70
2023/09/09 13:41:55;;;;;;;8.13;7.32;;;24.60;99.90;;;;;;6232218;28;89198;-70
2023/09/09 13:44:57;;;;;;;8.95;7.78;;;24.60;99.90;;;;;;6231014;28;89950;-70
2023/09/09 13:47:59;;;;;;;8.57;6.65;;;24.60;99.90;;;;;;6241138;27;89143;-70
2023/09/09 13:51:02;;;;;;;8.05;7.30;;;24.60;99.90;;;;;;6229536;28;89067;-69
2023/09/09 13:54:05;;;;;;;9.18;6.95;;;24.60;99.90;;;;;;6229932;28;90983;-69
2023/09/09 13:57:07;;;;;;;7.80;7.10;;;24.60;99.90;;;;;;6225254;28;89912;-68
2023/09/09 14:00:10;;;;;;;7.97;7.28;;;24.50;99.90;;;;;;6232453;28;89036;-70
2023/09/09 14:03:11;;;;;;;7.53;6.57;;;24.50;99.90;;;;;;6224562;28;89228;-70
2023/09/09 14:06:15;;;;;;;7.50;6.80;;;24.50;99.90;;;;;;6227520;28;88403;-70
2023/09/09 14:09:17;;;;;;;9.20;7.32;;;24.60;99.90;;;;;;6229742;28;89171;-70
2023/09/09 14:12:19;;;;;;;9.05;7.07;;;24.60;99.90;;;;;;6231359;28;88279;-71
2023/09/09 14:15:21;;;;;;;8.00;6.82;;;24.50;99.90;;;;;;6231142;28;90027;-71
2023/09/09 14:18:23;;;;;;;8.18;7.13;;;24.50;99.90;;;;;;6229827;28;89015;-71
2023/09/09 14:21:26;;;;;;;7.57;6.88;;;24.50;99.90;;;;;;6232533;28;89093;-71
2023/09/09 14:24:28;;;;;;;7.50;6.68;;;24.50;99.90;;;;;;6231369;28;87978;-70
2023/09/09 14:27:30;;;;;;;7.82;7.13;;;24.50;99.90;;;;;;6231970;28;89115;-71
2023/09/09 14:30:32;;;;;;;7.75;6.97;;;24.50;99.90;;;;;;6224479;28;88922;-70
2023/09/09 14:33:34;;;;;;;7.53;6.82;;;24.50;99.90;;;;;;6232108;28;88955;-71
2023/09/09 14:36:38;;;;;;;7.10;6.50;;;24.40;99.90;;;;;;6231787;28;88412;-71
2023/09/09 14:39:40;;;;;;;7.20;6.50;;;24.50;99.90;;;;;;6231011;28;89173;-70
2023/09/09 14:42:42;;;;;;;7.43;6.72;;;24.50;99.90;;;;;;6231018;28;89511;-71
2023/09/09 14:45:44;;;;;;;7.35;6.63;;;24.40;99.90;;;;;;6231418;28;90416;-71
2023/09/09 14:48:58;;;;;;;8.10;7.30;;;24.40;99.90;;;;;;6229989;28;90226;-70
2023/09/09 14:52:01;;;;;;;7.47;6.82;;;24.40;99.90;;;;;;6230620;28;88338;-70
2023/09/09 14:55:03;;;;;;;7.70;7.00;;;24.40;99.90;;;;;;6231785;28;89055;-70
2023/09/09 14:58:05;;;;;;;7.85;7.15;;;24.40;99.90;;;;;;6230425;28;89034;-70
2023/09/09 15:01:07;;;;;;;7.72;6.93;;;24.40;99.90;;;;;;6230359;28;88986;-70
2023/09/09 15:04:10;;;;;;;7.47;6.88;;;24.40;99.90;;;;;;6230375;28;89046;-70
2023/09/09 15:07:13;;;;;;;7.70;7.00;;;24.40;99.90;;;;;;6230043;28;88508;-70
2023/09/09 15:10:15;;;;;;;7.70;6.90;;;24.40;99.90;;;;;;6231843;28;88985;-70
2023/09/09 15:13:18;;;;;;;7.82;7.03;;;24.40;99.90;;;;;;6230567;28;88744;-71
2023/09/09 15:16:21;;;;;;;7.07;6.47;;;24.40;99.90;;;;;;6230247;28;89951;-70
2023/09/09 15:19:23;;;;;;;7.82;7.13;;;24.30;99.90;;;;;;6229981;28;88991;-71
2023/09/09 15:22:27;;;;;;;7.60;7.00;;;24.30;99.90;;;;;;6231242;28;89038;-71
2023/09/09 15:25:30;;;;;;;7.65;7.05;;;24.40;99.90;;;;;;6230630;28;88942;-70
2023/09/09 15:28:32;;;;;;;7.07;6.45;;;24.40;99.90;;;;;;6230616;28;89304;-70
2023/09/09 15:31:34;;;;;;;7.20;6.60;;;24.40;99.90;;;;;;6229584;28;89050;-70
2023/09/09 15:34:36;;;;;;;8.13;7.25;;;24.30;99.90;;;;;;6230454;28;89028;-70
2023/09/09 15:37:40;;;;;;;7.65;6.95;;;24.40;99.90;;;;;;6231209;28;87125;-70
2023/09/09 15:40:42;;;;;;;7.55;6.85;;;24.40;99.90;;;;;;6226763;28;87920;-70
2023/09/09 15:43:46;;;;;;;7.45;6.82;;;24.30;99.90;;;;;;6230332;28;89098;-70
2023/09/09 15:46:48;;;;;;;7.50;6.90;;;24.40;99.90;;;;;;6230401;28;89949;-70
2023/09/09 15:49:50;;;;;;;7.65;6.85;;;24.30;99.90;;;;;;6229755;28;89547;-70